createdAt,value
2019-01-08T00:00:00.176Z,1006.61
2019-01-08T00:01:00.160Z,1006.62
2019-01-08T00:02:00.039Z,1006.58
2019-01-08T00:03:00.052Z,1006.62
2019-01-08T00:04:00.048Z,1006.52
2019-01-08T00:05:00.196Z,1006.52
2019-01-08T00:06:00.000Z,1006.44
2019-01-08T00:06:59.988Z,1006.46
2019-01-08T00:07:59.980Z,1006.42
2019-01-08T00:08:59.997Z,1006.39
2019-01-08T00:09:59.956Z,1006.36
2019-01-08T00:10:59.945Z,1006.38
2019-01-08T00:11:59.952Z,1006.40
2019-01-08T00:12:59.925Z,1006.37
2019-01-08T00:13:59.913Z,1006.31
2019-01-08T00:14:59.904Z,1006.32
2019-01-08T00:15:59.886Z,1006.31
2019-01-08T00:16:59.929Z,1006.19
2019-01-08T00:17:59.869Z,1006.16
2019-01-08T00:18:59.884Z,1006.21
2019-01-08T00:19:59.859Z,1006.20
2019-01-08T00:20:59.849Z,1006.24
2019-01-08T00:21:59.822Z,1006.17
2019-01-08T00:22:59.839Z,1006.05
2019-01-08T00:23:59.848Z,1006.04
2019-01-08T00:24:59.785Z,1005.97
2019-01-08T00:25:59.786Z,1005.92
2019-01-08T00:26:59.772Z,1005.91
2019-01-08T00:27:59.762Z,1005.85
2019-01-08T00:28:59.775Z,1005.95
2019-01-08T00:29:59.735Z,1005.82
2019-01-08T00:30:59.722Z,1005.88
2019-01-08T00:31:59.737Z,1005.79
2019-01-08T00:32:59.702Z,1005.83
2019-01-08T00:33:59.713Z,1005.86
2019-01-08T00:34:59.677Z,1005.79
2019-01-08T00:35:59.669Z,1005.90
2019-01-08T00:36:59.655Z,1005.79
2019-01-08T00:37:59.668Z,1005.68
2019-01-08T00:38:59.645Z,1005.65
2019-01-08T00:39:59.662Z,1005.58
2019-01-08T00:40:59.650Z,1005.58
2019-01-08T00:41:59.604Z,1005.58
2019-01-08T00:42:59.594Z,1005.55
2019-01-08T00:43:59.579Z,1005.49
2019-01-08T00:44:59.592Z,1005.46
2019-01-08T00:45:59.585Z,1005.47
2019-01-08T00:46:59.559Z,1005.45
2019-01-08T00:47:59.560Z,1005.36
2019-01-08T00:48:59.525Z,1005.44
2019-01-08T00:49:59.568Z,1005.38
2019-01-08T00:50:59.580Z,1005.37
2019-01-08T00:51:59.506Z,1005.32
2019-01-08T00:52:59.486Z,1005.39
2019-01-08T00:53:59.487Z,1005.36
2019-01-08T00:54:59.462Z,1005.33
2019-01-08T00:55:59.482Z,1005.24
2019-01-08T00:56:59.451Z,1005.31
2019-01-08T00:57:59.447Z,1005.22
2019-01-08T00:58:59.421Z,1005.21
2019-01-08T00:59:59.412Z,1005.16
2019-01-08T01:00:59.406Z,1005.19
2019-01-08T01:01:59.407Z,1005.17
2019-01-08T01:02:59.401Z,1005.10
2019-01-08T01:03:59.370Z,1005.06
2019-01-08T01:04:59.362Z,1005.04
2019-01-08T01:05:59.341Z,1005.02
2019-01-08T01:06:59.348Z,1005.01
2019-01-08T01:07:59.317Z,1004.95
2019-01-08T01:08:59.311Z,1004.97
2019-01-08T01:09:59.315Z,1004.92
2019-01-08T01:10:59.304Z,1004.92
2019-01-08T01:11:59.393Z,1004.90
2019-01-08T01:12:59.271Z,1004.90
2019-01-08T01:13:59.250Z,1004.84
2019-01-08T01:14:59.241Z,1004.87
2019-01-08T01:15:59.238Z,1004.82
2019-01-08T01:16:59.220Z,1004.70
2019-01-08T01:17:59.248Z,1004.68
2019-01-08T01:18:59.207Z,1004.71
2019-01-08T01:19:59.211Z,1004.69
2019-01-08T01:20:59.177Z,1004.66
2019-01-08T01:21:59.179Z,1004.64
2019-01-08T01:22:59.191Z,1004.62
2019-01-08T01:23:59.154Z,1004.54
2019-01-08T01:24:59.140Z,1004.56
2019-01-08T01:25:59.142Z,1004.52
2019-01-08T01:26:59.112Z,1004.44
2019-01-08T01:27:59.106Z,1004.39
2019-01-08T01:29:00.169Z,1004.43
2019-01-08T01:29:59.083Z,1004.40
2019-01-08T01:30:59.074Z,1004.33
2019-01-08T01:31:59.067Z,1004.30
2019-01-08T01:32:59.052Z,1004.22
2019-01-08T01:33:59.065Z,1004.24
2019-01-08T01:34:59.025Z,1004.25
2019-01-08T01:35:59.017Z,1004.27
2019-01-08T01:36:59.010Z,1004.21
2019-01-08T01:37:58.989Z,1004.19
2019-01-08T01:38:58.986Z,1004.17
2019-01-08T01:39:58.994Z,1004.13
2019-01-08T01:40:58.957Z,1004.03
2019-01-08T01:41:58.947Z,1004.11
2019-01-08T01:42:58.937Z,1004.04
2019-01-08T01:43:58.924Z,1003.98
2019-01-08T01:44:58.935Z,1004.07
2019-01-08T01:45:58.910Z,1003.99
2019-01-08T01:46:58.886Z,1003.96
2019-01-08T01:47:58.898Z,1003.93
2019-01-08T01:48:58.888Z,1003.94
2019-01-08T01:49:58.893Z,1003.93
2019-01-08T01:50:58.854Z,1004.08
2019-01-08T01:51:58.873Z,1003.90
2019-01-08T01:52:58.822Z,1003.88
2019-01-08T01:53:58.819Z,1003.85
2019-01-08T01:54:58.805Z,1003.82
2019-01-08T01:55:58.821Z,1003.70
2019-01-08T01:56:58.805Z,1003.75
2019-01-08T01:57:58.765Z,1003.65
2019-01-08T01:58:58.762Z,1003.65
2019-01-08T01:59:58.770Z,1003.57
2019-01-08T02:00:58.762Z,1003.59
2019-01-08T02:01:58.731Z,1003.57
2019-01-08T02:02:58.757Z,1003.67
2019-01-08T02:03:58.712Z,1003.57
2019-01-08T02:04:58.705Z,1003.57
2019-01-08T02:05:58.703Z,1003.51
2019-01-08T02:06:58.671Z,1003.51
2019-01-08T02:07:58.743Z,1003.52
2019-01-08T02:08:58.654Z,1003.41
2019-01-08T02:09:58.635Z,1003.40
2019-01-08T02:10:58.644Z,1003.47
2019-01-08T02:11:58.623Z,1003.43
2019-01-08T02:12:58.602Z,1003.41
2019-01-08T02:13:58.599Z,1003.40
2019-01-08T02:14:58.590Z,1003.36
2019-01-08T02:15:58.600Z,1003.34
2019-01-08T02:16:58.567Z,1003.35
2019-01-08T02:17:58.550Z,1003.35
2019-01-08T02:18:58.537Z,1003.33
2019-01-08T02:19:58.581Z,1003.31
2019-01-08T02:20:58.548Z,1003.22
2019-01-08T02:21:58.511Z,1003.18
2019-01-08T02:22:58.501Z,1003.21
2019-01-08T02:23:58.481Z,1003.32
2019-01-08T02:24:58.474Z,1003.23
2019-01-08T02:25:58.470Z,1003.32
2019-01-08T02:26:58.479Z,1003.29
2019-01-08T02:27:58.446Z,1003.25
2019-01-08T02:28:58.438Z,1003.29
2019-01-08T02:29:58.417Z,1003.16
2019-01-08T02:30:58.407Z,1003.23
2019-01-08T02:31:58.416Z,1003.14
2019-01-08T02:32:58.417Z,1003.06
2019-01-08T02:33:58.382Z,1003.12
2019-01-08T02:34:58.372Z,1003.12
2019-01-08T02:35:58.360Z,1003.00
2019-01-08T02:36:58.351Z,1003.04
2019-01-08T02:37:58.337Z,1002.90
2019-01-08T02:38:58.344Z,1002.99
2019-01-08T02:39:58.317Z,1002.90
2019-01-08T02:40:58.308Z,1002.87
2019-01-08T02:41:58.326Z,1002.83
2019-01-08T02:42:58.277Z,1002.87
2019-01-08T02:43:58.354Z,1002.83
2019-01-08T02:44:58.256Z,1002.79
2019-01-08T02:45:58.311Z,1002.76
2019-01-08T02:46:58.247Z,1002.75
2019-01-08T02:47:58.229Z,1002.78
2019-01-08T02:48:58.253Z,1002.73
2019-01-08T02:49:58.202Z,1002.73
2019-01-08T02:50:58.193Z,1002.89
2019-01-08T02:51:58.183Z,1002.75
2019-01-08T02:52:58.168Z,1002.65
2019-01-08T02:53:58.202Z,1002.70
2019-01-08T02:54:58.152Z,1002.58
2019-01-08T02:55:58.136Z,1002.67
2019-01-08T02:56:58.135Z,1002.57
2019-01-08T02:57:58.121Z,1002.62
2019-01-08T02:58:58.114Z,1002.54
2019-01-08T02:59:58.128Z,1002.53
2019-01-08T03:00:58.086Z,1002.40
2019-01-08T03:01:58.075Z,1002.32
2019-01-08T03:02:58.058Z,1002.33
2019-01-08T03:03:58.057Z,1002.33
2019-01-08T03:04:58.056Z,1002.27
2019-01-08T03:05:58.062Z,1002.31
2019-01-08T03:06:58.023Z,1002.23
2019-01-08T03:07:58.015Z,1002.19
2019-01-08T03:08:58.002Z,1002.18
2019-01-08T03:09:57.986Z,1002.16
2019-01-08T03:10:57.994Z,1002.11
2019-01-08T03:11:57.971Z,1002.12
2019-01-08T03:12:57.969Z,1002.03
2019-01-08T03:13:57.945Z,1002.06
2019-01-08T03:14:57.933Z,1002.13
2019-01-08T03:15:58.039Z,1002.06
2019-01-08T03:16:57.913Z,1002.03
2019-01-08T03:17:57.904Z,1001.95
2019-01-08T03:18:57.896Z,1002.05
2019-01-08T03:19:57.882Z,1001.96
2019-01-08T03:20:57.902Z,1001.95
2019-01-08T03:21:57.856Z,1001.94
2019-01-08T03:22:57.845Z,1001.77
2019-01-08T03:23:57.836Z,1001.82
2019-01-08T03:24:57.830Z,1001.76
2019-01-08T03:25:57.848Z,1001.66
2019-01-08T03:26:57.808Z,1001.70
2019-01-08T03:27:57.794Z,1001.67
2019-01-08T03:28:57.781Z,1001.67
2019-01-08T03:29:57.777Z,1001.65
2019-01-08T03:30:57.767Z,1001.73
2019-01-08T03:31:57.779Z,1001.62
2019-01-08T03:32:57.821Z,1001.63
2019-01-08T03:33:57.746Z,1001.70
2019-01-08T03:34:57.738Z,1001.69
2019-01-08T03:35:57.706Z,1001.63
2019-01-08T03:36:57.730Z,1001.61
2019-01-08T03:37:57.692Z,1001.67
2019-01-08T03:38:57.679Z,1001.61
2019-01-08T03:39:57.668Z,1001.50
2019-01-08T03:40:57.657Z,1001.50
2019-01-08T03:41:57.642Z,1001.47
2019-01-08T03:42:57.651Z,1001.51
2019-01-08T03:43:57.627Z,1001.50
2019-01-08T03:44:57.617Z,1001.49
2019-01-08T03:45:57.596Z,1001.47
2019-01-08T03:46:57.591Z,1001.40
2019-01-08T03:47:57.597Z,1001.44
2019-01-08T03:48:57.567Z,1001.35
2019-01-08T03:49:57.563Z,1001.39
2019-01-08T03:50:57.552Z,1001.31
2019-01-08T03:51:57.541Z,1001.29
2019-01-08T03:52:57.550Z,1001.32
2019-01-08T03:53:57.516Z,1001.26
2019-01-08T03:54:57.501Z,1001.30
2019-01-08T03:55:57.488Z,1001.20
2019-01-08T03:56:57.488Z,1001.13
2019-01-08T03:57:57.515Z,1001.19
2019-01-08T03:58:57.485Z,1001.14
2019-01-08T03:59:57.468Z,1001.14
2019-01-08T04:00:57.439Z,1001.08
2019-01-08T04:01:57.438Z,1001.02
2019-01-08T04:02:57.429Z,1001.05
2019-01-08T04:03:57.441Z,1000.99
2019-01-08T04:04:57.405Z,1001.00
2019-01-08T04:05:57.389Z,1000.98
2019-01-08T04:06:57.379Z,1000.90
2019-01-08T04:07:57.363Z,1000.96
2019-01-08T04:08:57.665Z,1000.96
2019-01-08T04:09:57.346Z,1000.93
2019-01-08T04:10:57.341Z,1000.89
2019-01-08T04:11:57.330Z,1000.91
2019-01-08T04:12:57.315Z,1000.82
2019-01-08T04:13:57.296Z,1000.78
2019-01-08T04:14:57.307Z,1000.76
2019-01-08T04:15:57.289Z,1000.73
2019-01-08T04:16:57.278Z,1000.64
2019-01-08T04:17:57.253Z,1000.57
2019-01-08T04:18:57.242Z,1000.61
2019-01-08T04:19:57.256Z,1000.71
2019-01-08T04:20:57.220Z,1000.64
2019-01-08T04:21:57.215Z,1000.63
2019-01-08T04:22:57.209Z,1000.63
2019-01-08T04:23:57.194Z,1000.65
2019-01-08T04:24:57.216Z,1000.72
2019-01-08T04:25:57.165Z,1000.67
2019-01-08T04:26:57.162Z,1000.68
2019-01-08T04:27:57.164Z,1000.76
2019-01-08T04:28:57.136Z,1000.68
2019-01-08T04:29:57.133Z,1000.64
2019-01-08T04:30:57.144Z,1000.70
2019-01-08T04:31:57.103Z,1000.64
2019-01-08T04:32:57.094Z,1000.58
2019-01-08T04:33:57.088Z,1000.50
2019-01-08T04:34:57.080Z,1000.54
2019-01-08T04:35:57.099Z,1000.49
2019-01-08T04:36:57.058Z,1000.54
2019-01-08T04:37:57.039Z,1000.43
2019-01-08T04:38:57.026Z,1000.41
2019-01-08T04:39:57.019Z,1000.36
2019-01-08T04:40:57.008Z,1000.32
2019-01-08T04:41:57.037Z,1000.32
2019-01-08T04:42:57.011Z,1000.30
2019-01-08T04:43:56.982Z,1000.23
2019-01-08T04:44:56.969Z,1000.27
2019-01-08T04:45:56.952Z,1000.21
2019-01-08T04:46:56.962Z,1000.18
2019-01-08T04:47:56.939Z,1000.16
2019-01-08T04:48:56.926Z,1000.04
2019-01-08T04:49:56.913Z,1000.07
2019-01-08T04:50:56.907Z,999.98
2019-01-08T04:51:56.918Z,999.84
2019-01-08T04:52:56.879Z,999.82
2019-01-08T04:53:56.874Z,999.70
2019-01-08T04:54:56.861Z,999.69
2019-01-08T04:55:56.854Z,999.73
2019-01-08T04:56:56.842Z,999.66
2019-01-08T04:57:56.859Z,999.61
2019-01-08T04:58:56.815Z,999.66
2019-01-08T04:59:59.119Z,999.60
2019-01-08T05:00:56.789Z,999.58
2019-01-08T05:01:56.789Z,999.55
2019-01-08T05:02:56.774Z,999.54
2019-01-08T05:03:56.781Z,999.54
2019-01-08T05:04:56.749Z,999.51
2019-01-08T05:05:56.741Z,999.47
2019-01-08T05:06:56.732Z,999.40
2019-01-08T05:07:56.724Z,999.40
2019-01-08T05:08:56.744Z,999.31
2019-01-08T05:09:56.696Z,999.31
2019-01-08T05:10:56.684Z,999.29
2019-01-08T05:11:56.675Z,999.25
2019-01-08T05:12:56.663Z,999.17
2019-01-08T05:13:56.658Z,999.23
2019-01-08T05:14:56.670Z,999.20
2019-01-08T05:15:56.643Z,999.14
2019-01-08T05:16:56.626Z,999.19
2019-01-08T05:17:56.607Z,999.09
2019-01-08T05:18:56.595Z,999.14
2019-01-08T05:19:56.664Z,999.13
2019-01-08T05:20:56.582Z,999.17
2019-01-08T05:21:56.578Z,999.15
2019-01-08T05:22:56.555Z,999.09
2019-01-08T05:23:56.543Z,999.11
2019-01-08T05:24:56.533Z,999.06
2019-01-08T05:25:56.633Z,999.05
2019-01-08T05:26:56.519Z,999.07
2019-01-08T05:28:05.135Z,999.07
2019-01-08T05:28:56.490Z,999.05
2019-01-08T05:29:56.477Z,999.09
2019-01-08T05:30:56.509Z,999.07
2019-01-08T05:31:56.459Z,998.99
2019-01-08T05:32:56.449Z,999.02
2019-01-08T05:33:56.447Z,999.00
2019-01-08T05:34:56.422Z,998.93
2019-01-08T05:35:56.422Z,998.97
2019-01-08T05:36:56.431Z,998.92
2019-01-08T05:37:56.396Z,998.88
2019-01-08T05:38:56.385Z,998.96
2019-01-08T05:39:56.373Z,998.88
2019-01-08T05:40:56.361Z,998.85
2019-01-08T05:41:56.392Z,998.89
2019-01-08T05:42:56.336Z,998.79
2019-01-08T05:43:56.332Z,998.73
2019-01-08T05:44:56.321Z,998.76
2019-01-08T05:45:56.313Z,998.65
2019-01-08T05:46:56.305Z,998.66
2019-01-08T05:47:56.333Z,998.66
2019-01-08T05:48:56.271Z,998.60
2019-01-08T05:49:56.273Z,998.62
2019-01-08T05:50:56.254Z,998.64
2019-01-08T05:51:56.247Z,998.54
2019-01-08T05:52:56.265Z,998.54
2019-01-08T05:53:56.215Z,998.56
2019-01-08T05:54:56.209Z,998.50
2019-01-08T05:55:56.206Z,998.53
2019-01-08T05:56:56.200Z,998.53
2019-01-08T05:57:56.193Z,998.54
2019-01-08T05:58:56.201Z,998.53
2019-01-08T05:59:56.153Z,998.49
2019-01-08T06:00:56.141Z,998.58
2019-01-08T06:01:56.132Z,998.48
2019-01-08T06:02:56.122Z,998.44
2019-01-08T06:03:56.140Z,998.48
2019-01-08T06:04:56.112Z,998.40
2019-01-08T06:05:56.087Z,998.32
2019-01-08T06:06:56.077Z,998.31
2019-01-08T06:07:56.076Z,998.32
2019-01-08T06:08:56.085Z,998.35
2019-01-08T06:09:56.054Z,998.25
2019-01-08T06:10:56.066Z,998.35
2019-01-08T06:11:56.023Z,998.28
2019-01-08T06:12:56.014Z,998.29
2019-01-08T06:13:56.038Z,998.28
2019-01-08T06:14:55.995Z,998.25
2019-01-08T06:15:55.998Z,998.26
2019-01-08T06:16:55.980Z,998.13
2019-01-08T06:17:55.971Z,998.20
2019-01-08T06:18:55.955Z,998.18
2019-01-08T06:19:55.964Z,998.24
2019-01-08T06:20:55.931Z,998.18
2019-01-08T06:21:55.928Z,998.24
2019-01-08T06:22:55.915Z,998.20
2019-01-08T06:23:56.008Z,998.16
2019-01-08T06:24:55.910Z,998.23
2019-01-08T06:25:55.876Z,997.98
2019-01-08T06:26:55.862Z,998.05
2019-01-08T06:27:55.860Z,998.18
2019-01-08T06:28:55.849Z,997.90
2019-01-08T06:29:55.868Z,997.87
2019-01-08T06:30:55.825Z,997.81
2019-01-08T06:31:55.808Z,997.87
2019-01-08T06:32:55.802Z,997.82
2019-01-08T06:33:55.789Z,997.77
2019-01-08T06:34:55.777Z,997.73
2019-01-08T06:35:55.806Z,997.78
2019-01-08T06:36:55.765Z,997.63
2019-01-08T06:37:55.765Z,997.70
2019-01-08T06:38:55.737Z,997.75
2019-01-08T06:39:55.764Z,997.59
2019-01-08T06:40:57.834Z,997.61
2019-01-08T06:41:55.706Z,997.59
2019-01-08T06:42:55.702Z,997.54
2019-01-08T06:43:55.682Z,997.53
2019-01-08T06:44:55.668Z,997.46
2019-01-08T06:45:55.680Z,997.42
2019-01-08T06:46:55.648Z,997.46
2019-01-08T06:47:55.642Z,997.45
2019-01-08T06:48:55.634Z,997.46
2019-01-08T06:49:55.621Z,997.42
2019-01-08T06:50:56.211Z,997.42
2019-01-08T06:51:55.600Z,997.41
2019-01-08T06:52:55.583Z,997.34
2019-01-08T06:53:55.577Z,997.33
2019-01-08T06:54:55.565Z,997.24
2019-01-08T06:55:55.573Z,997.37
2019-01-08T06:56:55.539Z,997.29
2019-01-08T06:57:55.531Z,997.18
2019-01-08T06:58:55.540Z,997.25
2019-01-08T06:59:55.514Z,997.18
2019-01-08T07:00:55.546Z,997.18
2019-01-08T07:01:55.508Z,997.16
2019-01-08T07:02:55.483Z,997.18
2019-01-08T07:03:55.470Z,997.19
2019-01-08T07:04:55.461Z,997.10
2019-01-08T07:05:55.439Z,997.22
2019-01-08T07:06:55.461Z,997.61
2019-01-08T07:07:55.427Z,997.09
2019-01-08T07:08:55.416Z,997.05
2019-01-08T07:09:55.405Z,997.00
2019-01-08T07:10:55.390Z,997.12
2019-01-08T07:11:55.403Z,997.16
2019-01-08T07:12:55.397Z,996.95
2019-01-08T07:13:55.360Z,997.01
2019-01-08T07:14:55.350Z,996.92
2019-01-08T07:15:55.341Z,996.88
2019-01-08T07:16:55.327Z,996.91
2019-01-08T07:17:55.365Z,996.90
2019-01-08T07:18:55.316Z,996.87
2019-01-08T07:19:55.300Z,996.94
2019-01-08T07:20:55.287Z,996.79
2019-01-08T07:21:55.281Z,996.91
2019-01-08T07:22:55.314Z,996.76
2019-01-08T07:23:55.261Z,996.76
2019-01-08T07:24:55.240Z,996.73
2019-01-08T07:25:55.233Z,996.75
2019-01-08T07:26:55.225Z,996.74
2019-01-08T07:27:55.207Z,996.73
2019-01-08T07:28:55.217Z,996.61
2019-01-08T07:29:55.191Z,996.65
2019-01-08T07:30:55.175Z,996.68
2019-01-08T07:31:55.168Z,996.55
2019-01-08T07:32:55.156Z,996.73
2019-01-08T07:33:55.184Z,996.68
2019-01-08T07:34:55.138Z,996.47
2019-01-08T07:35:55.124Z,996.47
2019-01-08T07:36:55.108Z,996.44
2019-01-08T07:37:55.096Z,996.43
2019-01-08T07:38:55.089Z,996.49
2019-01-08T07:39:55.103Z,996.35
2019-01-08T07:40:55.075Z,996.31
2019-01-08T07:41:55.059Z,996.34
2019-01-08T07:42:55.042Z,996.27
2019-01-08T07:43:55.086Z,996.17
2019-01-08T07:44:55.354Z,996.13
2019-01-08T07:45:55.019Z,996.21
2019-01-08T07:46:55.019Z,996.32
2019-01-08T07:47:55.047Z,996.18
2019-01-08T07:48:55.118Z,996.03
2019-01-08T07:49:54.991Z,996.11
2019-01-08T07:50:54.980Z,996.15
2019-01-08T07:51:54.955Z,996.01
2019-01-08T07:52:54.947Z,995.93
2019-01-08T07:53:55.016Z,996.04
2019-01-08T07:54:54.922Z,995.91
2019-01-08T07:55:54.939Z,995.82
2019-01-08T07:56:54.899Z,995.93
2019-01-08T07:57:54.922Z,995.91
2019-01-08T07:58:54.886Z,995.85
2019-01-08T07:59:54.863Z,995.84
2019-01-08T08:00:54.859Z,995.96
2019-01-08T08:01:54.879Z,995.84
2019-01-08T08:02:54.832Z,995.74
2019-01-08T08:03:54.825Z,995.85
2019-01-08T08:04:54.847Z,995.79
2019-01-08T08:05:54.808Z,995.85
2019-01-08T08:06:54.826Z,995.69
2019-01-08T08:07:54.799Z,995.70
2019-01-08T08:08:54.766Z,995.65
2019-01-08T08:09:54.753Z,995.67
2019-01-08T08:10:54.753Z,995.70
2019-01-08T08:11:54.740Z,995.61
2019-01-08T08:12:54.748Z,995.50
2019-01-08T08:13:54.728Z,995.55
2019-01-08T08:14:54.703Z,995.73
2019-01-08T08:15:54.713Z,995.56
2019-01-08T08:16:54.683Z,995.57
2019-01-08T08:17:54.699Z,995.47
2019-01-08T08:18:54.660Z,995.70
2019-01-08T08:19:54.647Z,995.51
2019-01-08T08:20:54.635Z,995.50
2019-01-08T08:21:54.624Z,995.45
2019-01-08T08:22:54.643Z,995.55
2019-01-08T08:23:54.606Z,995.54
2019-01-08T08:24:55.934Z,995.43
2019-01-08T08:25:54.587Z,995.56
2019-01-08T08:26:54.578Z,995.43
2019-01-08T08:27:54.556Z,995.51
2019-01-08T08:28:54.582Z,995.33
2019-01-08T08:29:54.541Z,995.38
2019-01-08T08:30:58.742Z,995.28
2019-01-08T08:31:54.514Z,995.30
2019-01-08T08:32:54.503Z,995.25
2019-01-08T08:33:54.537Z,995.27
2019-01-08T08:34:54.566Z,995.26
2019-01-08T08:35:54.477Z,995.22
2019-01-08T08:36:54.465Z,995.15
2019-01-08T08:37:54.512Z,995.03
2019-01-08T08:38:54.446Z,995.15
2019-01-08T08:39:54.468Z,995.13
2019-01-08T08:40:54.422Z,994.96
2019-01-08T08:41:54.428Z,995.04
2019-01-08T08:42:54.399Z,995.06
2019-01-08T08:43:54.387Z,995.00
2019-01-08T08:44:54.380Z,995.05
2019-01-08T08:45:54.403Z,994.94
2019-01-08T08:46:54.349Z,994.94
2019-01-08T08:47:54.347Z,994.81
2019-01-08T08:48:54.334Z,994.88
2019-01-08T08:49:54.339Z,994.89
2019-01-08T08:50:54.334Z,994.85
2019-01-08T08:51:54.297Z,994.89
2019-01-08T08:52:54.288Z,994.90
2019-01-08T08:53:54.318Z,994.75
2019-01-08T08:54:54.274Z,994.70
2019-01-08T08:55:54.334Z,994.71
2019-01-08T08:56:54.251Z,994.81
2019-01-08T08:57:54.238Z,994.74
2019-01-08T08:58:54.231Z,994.63
2019-01-08T08:59:54.209Z,994.71
2019-01-08T09:00:54.200Z,994.51
2019-01-08T09:01:54.226Z,994.49
2019-01-08T09:02:54.184Z,994.73
2019-01-08T09:03:54.167Z,994.49
2019-01-08T09:04:54.170Z,994.44
2019-01-08T09:05:54.145Z,994.41
2019-01-08T09:06:54.132Z,994.56
2019-01-08T09:07:54.169Z,994.45
2019-01-08T09:08:54.117Z,994.59
2019-01-08T09:09:54.107Z,994.31
2019-01-08T09:10:54.096Z,994.36
2019-01-08T09:11:54.083Z,994.38
2019-01-08T09:12:54.069Z,994.29
2019-01-08T09:13:54.083Z,994.41
2019-01-08T09:14:54.062Z,994.27
2019-01-08T09:15:54.041Z,994.38
2019-01-08T09:16:54.045Z,994.34
2019-01-08T09:17:54.013Z,994.27
2019-01-08T09:18:54.036Z,994.21
2019-01-08T09:19:53.998Z,994.17
2019-01-08T09:20:53.988Z,994.14
2019-01-08T09:21:53.974Z,994.22
2019-01-08T09:22:53.979Z,994.14
2019-01-08T09:23:53.953Z,994.28
2019-01-08T09:24:54.001Z,994.11
2019-01-08T09:25:53.931Z,994.09
2019-01-08T09:26:53.916Z,994.03
2019-01-08T09:27:53.910Z,994.10
2019-01-08T09:28:53.907Z,994.15
2019-01-08T09:29:53.910Z,994.05
2019-01-08T09:30:53.879Z,993.99
2019-01-08T09:31:53.861Z,994.00
2019-01-08T09:32:53.847Z,993.90
2019-01-08T09:33:53.854Z,993.91
2019-01-08T09:34:53.854Z,993.79
2019-01-08T09:35:53.840Z,993.85
2019-01-08T09:36:53.855Z,993.79
2019-01-08T09:37:53.797Z,993.88
2019-01-08T09:38:53.793Z,993.84
2019-01-08T09:39:53.783Z,993.87
2019-01-08T09:40:53.824Z,993.78
2019-01-08T09:41:53.758Z,993.92
2019-01-08T09:42:53.744Z,993.82
2019-01-08T09:43:53.731Z,993.67
2019-01-08T09:44:53.721Z,993.62
2019-01-08T09:45:53.728Z,993.50
2019-01-08T09:46:53.744Z,993.54
2019-01-08T09:47:53.692Z,993.52
2019-01-08T09:48:53.692Z,993.51
2019-01-08T09:49:53.665Z,993.49
2019-01-08T09:50:53.684Z,993.49
2019-01-08T09:51:53.647Z,993.59
2019-01-08T09:52:53.637Z,993.51
2019-01-08T09:53:53.626Z,993.45
2019-01-08T09:54:53.634Z,993.48
2019-01-08T09:55:53.629Z,993.56
2019-01-08T09:56:53.611Z,993.47
2019-01-08T09:57:53.576Z,993.45
2019-01-08T09:58:53.573Z,993.43
2019-01-08T09:59:53.564Z,993.29
2019-01-08T10:00:53.551Z,993.42
2019-01-08T10:01:53.680Z,993.42
2019-01-08T10:02:53.525Z,993.28
2019-01-08T10:04:02.234Z,993.49
2019-01-08T10:04:53.504Z,993.28
2019-01-08T10:05:53.489Z,993.15
2019-01-08T10:06:53.476Z,993.31
2019-01-08T10:07:53.491Z,993.23
2019-01-08T10:08:53.460Z,993.20
2019-01-08T10:09:53.460Z,993.16
2019-01-08T10:10:53.439Z,993.10
2019-01-08T10:11:53.430Z,993.01
2019-01-08T10:12:53.466Z,992.99
2019-01-08T10:13:53.404Z,993.06
2019-01-08T10:14:53.389Z,993.02
2019-01-08T10:15:53.381Z,993.21
2019-01-08T10:16:53.370Z,992.98
2019-01-08T10:17:53.361Z,992.94
2019-01-08T10:18:53.379Z,993.00
2019-01-08T10:19:53.337Z,992.91
2019-01-08T10:20:53.331Z,992.81
2019-01-08T10:21:53.322Z,992.86
2019-01-08T10:22:53.309Z,992.96
2019-01-08T10:23:53.325Z,992.95
2019-01-08T10:24:53.288Z,992.69
2019-01-08T10:25:53.273Z,992.70
2019-01-08T10:26:53.269Z,992.76
2019-01-08T10:27:53.249Z,992.77
2019-01-08T10:28:53.235Z,992.62
2019-01-08T10:29:53.264Z,992.67
2019-01-08T10:30:53.228Z,992.67
2019-01-08T10:31:53.215Z,992.71
2019-01-08T10:32:53.209Z,992.72
2019-01-08T10:33:53.188Z,992.76
2019-01-08T10:34:53.219Z,992.68
2019-01-08T10:35:53.168Z,992.64
2019-01-08T10:36:53.158Z,992.47
2019-01-08T10:37:53.148Z,992.56
2019-01-08T10:38:53.130Z,992.49
2019-01-08T10:39:53.129Z,992.53
2019-01-08T10:40:53.130Z,992.50
2019-01-08T10:41:53.101Z,992.60
2019-01-08T10:42:53.096Z,992.50
2019-01-08T10:43:53.087Z,992.53
2019-01-08T10:44:53.084Z,992.42
2019-01-08T10:45:53.078Z,992.49
2019-01-08T10:46:53.041Z,992.38
2019-01-08T10:47:53.031Z,992.33
2019-01-08T10:48:53.023Z,992.34
2019-01-08T10:49:53.098Z,992.38
2019-01-08T10:50:53.042Z,992.34
2019-01-08T10:51:53.020Z,992.37
2019-01-08T10:52:52.982Z,992.35
2019-01-08T10:53:52.986Z,992.25
2019-01-08T10:54:52.966Z,992.35
2019-01-08T10:55:52.954Z,992.24
2019-01-08T10:56:52.965Z,992.18
2019-01-08T10:57:52.924Z,992.35
2019-01-08T10:58:52.917Z,992.20
2019-01-08T10:59:52.903Z,992.23
2019-01-08T11:00:52.925Z,992.27
2019-01-08T11:01:52.892Z,992.16
2019-01-08T11:02:52.880Z,992.13
2019-01-08T11:03:52.863Z,992.10
2019-01-08T11:04:52.858Z,992.14
2019-01-08T11:05:52.837Z,992.11
2019-01-08T11:06:52.855Z,992.15
2019-01-08T11:07:52.827Z,992.16
2019-01-08T11:08:52.810Z,992.14
2019-01-08T11:09:52.795Z,991.97
2019-01-08T11:10:52.786Z,992.12
2019-01-08T11:11:52.806Z,992.00
2019-01-08T11:12:52.768Z,991.97
2019-01-08T11:13:52.767Z,991.90
2019-01-08T11:14:52.747Z,992.01
2019-01-08T11:15:52.734Z,991.91
2019-01-08T11:16:52.745Z,992.04
2019-01-08T11:17:52.733Z,991.93
2019-01-08T11:18:52.703Z,991.92
2019-01-08T11:19:52.686Z,991.87
2019-01-08T11:20:52.674Z,991.95
2019-01-08T11:21:52.671Z,991.92
2019-01-08T11:22:52.694Z,991.87
2019-01-08T11:23:52.644Z,991.85
2019-01-08T11:24:52.635Z,991.74
2019-01-08T11:25:52.646Z,991.80
2019-01-08T11:26:52.616Z,991.93
2019-01-08T11:27:52.606Z,991.88
2019-01-08T11:29:00.686Z,991.90
2019-01-08T11:29:52.580Z,991.93
2019-01-08T11:30:52.570Z,991.76
2019-01-08T11:31:52.563Z,991.74
2019-01-08T11:32:52.551Z,991.76
2019-01-08T11:33:52.540Z,991.68
2019-01-08T11:34:52.565Z,991.75
2019-01-08T11:35:52.513Z,991.70
2019-01-08T11:36:52.504Z,991.70
2019-01-08T11:37:52.503Z,991.69
2019-01-08T11:38:52.485Z,991.57
2019-01-08T11:39:52.498Z,991.55
2019-01-08T11:40:52.460Z,991.62
2019-01-08T11:41:52.447Z,991.59
2019-01-08T11:42:52.440Z,991.49
2019-01-08T11:43:52.432Z,991.59
2019-01-08T11:44:52.420Z,991.63
2019-01-08T11:45:52.432Z,991.40
2019-01-08T11:46:52.402Z,991.48
2019-01-08T11:47:52.383Z,991.46
2019-01-08T11:48:52.393Z,991.60
2019-01-08T11:49:52.377Z,991.48
2019-01-08T11:50:52.386Z,991.62
2019-01-08T11:51:52.344Z,991.50
2019-01-08T11:52:52.332Z,991.53
2019-01-08T11:53:52.321Z,991.46
2019-01-08T11:54:52.305Z,991.50
2019-01-08T11:55:52.301Z,991.52
2019-01-08T11:56:52.324Z,991.44
2019-01-08T11:57:52.280Z,991.45
2019-01-08T11:58:52.266Z,991.35
2019-01-08T11:59:52.257Z,991.46
2019-01-08T12:00:52.251Z,991.26
2019-01-08T12:01:57.115Z,991.33
2019-01-08T12:02:53.250Z,991.36
2019-01-08T12:03:52.216Z,991.45
2019-01-08T12:04:52.203Z,991.60
2019-01-08T12:05:52.191Z,991.35
2019-01-08T12:06:52.191Z,991.35
2019-01-08T12:07:52.186Z,991.50
2019-01-08T12:08:52.175Z,991.50
2019-01-08T12:09:52.148Z,991.49
2019-01-08T12:10:52.139Z,991.37
2019-01-08T12:11:52.120Z,991.35
2019-01-08T12:12:52.113Z,991.45
2019-01-08T12:13:52.119Z,991.23
2019-01-08T12:14:52.093Z,991.27
2019-01-08T12:15:52.081Z,991.11
2019-01-08T12:16:52.069Z,991.19
2019-01-08T12:17:52.160Z,991.17
2019-01-08T12:18:52.150Z,991.24